createdAt,value
2022-11-04T00:00:18.881Z,23.15
2022-11-04T00:02:47.538Z,29.48
2022-11-04T00:05:17.653Z,15.63
2022-11-04T00:08:03.059Z,30.67
2022-11-04T00:10:45.471Z,30.92
2022-11-04T00:13:14.089Z,32.35
2022-11-04T00:16:00.440Z,25.92
2022-11-04T00:18:29.359Z,34.58
2022-11-04T00:21:17.168Z,27.63
2022-11-04T00:24:05.673Z,36.40
2022-11-04T00:26:51.728Z,31.80
2022-11-04T00:29:20.326Z,26.98
2022-11-04T00:32:06.256Z,31.98
2022-11-04T00:34:34.820Z,34.78
2022-11-04T00:37:05.009Z,26.35
2022-11-04T00:39:33.764Z,24.40
2022-11-04T00:42:02.495Z,28.83
2022-11-04T00:44:31.123Z,31.58
2022-11-04T00:46:59.766Z,22.75
2022-11-04T00:49:28.012Z,27.95
2022-11-04T00:51:56.749Z,25.88
2022-11-04T00:54:26.908Z,22.10
2022-11-04T00:56:55.699Z,23.38
2022-11-04T00:59:24.737Z,25.60
2022-11-04T01:01:53.188Z,25.92
2022-11-04T01:04:21.954Z,17.55
2022-11-04T01:06:50.957Z,25.20
2022-11-04T01:09:19.751Z,25.48
2022-11-04T01:11:49.916Z,33.00
2022-11-04T01:16:47.024Z,28.55
2022-11-04T01:19:15.632Z,33.83
2022-11-04T01:21:44.336Z,31.25
2022-11-04T01:24:12.963Z,29.92
2022-11-04T01:26:41.608Z,26.10
2022-11-04T01:29:11.600Z,18.67
2022-11-04T01:31:39.867Z,38.45
2022-11-04T01:34:08.778Z,26.80
2022-11-04T01:36:37.551Z,28.60
2022-11-04T01:39:06.257Z,27.85
2022-11-04T01:41:35.629Z,26.70
2022-11-04T01:44:06.462Z,31.02
2022-11-04T01:46:39.106Z,25.17
2022-11-04T01:49:16.987Z,22.60
2022-11-04T01:51:47.880Z,25.80
2022-11-04T01:54:16.994Z,25.60
2022-11-04T01:56:45.867Z,24.75
2022-11-04T01:59:17.953Z,32.70
2022-11-04T02:01:48.059Z,21.15
2022-11-04T02:04:30.239Z,25.15
2022-11-04T02:07:00.137Z,22.83
2022-11-04T02:09:30.585Z,24.20
2022-11-04T02:12:16.684Z,26.15
2022-11-04T02:14:46.168Z,29.13
2022-11-04T02:17:25.564Z,23.63
2022-11-04T02:20:02.698Z,26.05
2022-11-04T02:22:50.161Z,24.65
2022-11-04T02:25:33.956Z,22.83
2022-11-04T02:28:23.999Z,29.40
2022-11-04T02:30:56.363Z,22.17
2022-11-04T02:33:28.324Z,24.40
2022-11-04T02:36:03.547Z,24.42
2022-11-04T02:38:37.466Z,21.92
2022-11-04T02:41:13.837Z,28.13
2022-11-04T02:43:49.333Z,23.83
2022-11-04T02:46:23.386Z,22.02
2022-11-04T02:48:56.208Z,26.42
2022-11-04T02:51:29.788Z,26.17
2022-11-04T02:54:05.868Z,20.08
2022-11-04T02:56:37.946Z,22.50
2022-11-04T02:59:08.807Z,21.65
2022-11-04T03:01:42.140Z,22.75
2022-11-04T03:04:14.903Z,20.45
2022-11-04T03:06:45.229Z,23.02
2022-11-04T03:09:15.156Z,20.92
2022-11-04T03:11:46.169Z,19.75
2022-11-04T03:14:18.228Z,28.83
2022-11-04T03:16:49.283Z,25.52
2022-11-04T03:19:21.484Z,20.17
2022-11-04T03:21:54.935Z,22.67
2022-11-04T03:24:23.884Z,21.15
2022-11-04T03:26:56.948Z,21.65
2022-11-04T03:29:28.179Z,23.13
2022-11-04T03:32:05.100Z,20.58
2022-11-04T03:34:34.263Z,25.00
2022-11-04T03:37:03.180Z,24.00
2022-11-04T03:39:32.144Z,24.63
2022-11-04T03:42:03.398Z,19.73
2022-11-04T03:44:32.017Z,22.90
2022-11-04T03:47:02.143Z,22.25
2022-11-04T03:49:30.870Z,21.60
2022-11-04T03:51:59.648Z,24.08
2022-11-04T03:54:29.181Z,25.60
2022-11-04T03:57:11.107Z,21.97
2022-11-04T04:00:11.572Z,21.42
2022-11-04T04:05:18.667Z,18.38
2022-11-04T04:07:50.942Z,18.20
2022-11-04T04:10:41.903Z,19.90
2022-11-04T04:13:26.844Z,17.02
2022-11-04T04:15:58.372Z,15.85
2022-11-04T04:18:33.148Z,20.52
2022-11-04T04:21:04.707Z,17.48
2022-11-04T04:24:08.058Z,19.95
2022-11-04T04:26:54.836Z,18.33
2022-11-04T04:29:23.912Z,17.23
2022-11-04T04:31:57.937Z,21.48
2022-11-04T04:34:31.378Z,17.33
2022-11-04T04:37:03.577Z,19.92
2022-11-04T04:39:55.868Z,19.00
2022-11-04T04:42:42.056Z,16.80
2022-11-04T04:45:11.733Z,19.25
2022-11-04T04:47:44.330Z,23.48
2022-11-04T04:50:16.167Z,25.25
2022-11-04T04:52:47.480Z,21.58
2022-11-04T04:55:16.625Z,17.17
2022-11-04T04:57:45.569Z,18.40
2022-11-04T05:00:16.312Z,23.00
2022-11-04T05:02:45.547Z,19.13
2022-11-04T05:05:20.045Z,26.38
2022-11-04T05:07:48.735Z,16.33
2022-11-04T05:10:18.647Z,19.13
2022-11-04T05:13:04.698Z,24.38
2022-11-04T05:15:33.733Z,16.63
2022-11-04T05:18:03.417Z,15.57
2022-11-04T05:20:34.472Z,18.85
2022-11-04T05:23:03.267Z,21.13
2022-11-04T05:25:33.119Z,17.90
2022-11-04T05:28:02.590Z,14.00
2022-11-04T05:30:31.514Z,13.35
2022-11-04T05:33:03.654Z,21.17
2022-11-04T05:35:35.803Z,20.65
2022-11-04T05:40:32.656Z,18.92
2022-11-04T05:43:01.695Z,14.75
2022-11-04T05:45:30.687Z,17.58
2022-11-04T05:48:00.459Z,22.48
2022-11-04T05:50:29.567Z,17.40
2022-11-04T05:53:00.054Z,17.95
2022-11-04T05:55:28.808Z,17.63
2022-11-04T05:57:59.371Z,16.00
2022-11-04T06:00:28.696Z,19.45
2022-11-04T06:02:58.452Z,19.13
2022-11-04T06:05:27.546Z,18.40
2022-11-04T06:07:55.768Z,22.92
2022-11-04T06:10:26.046Z,18.10
2022-11-04T06:12:54.728Z,21.75
2022-11-04T06:15:23.424Z,18.60
2022-11-04T06:17:52.186Z,20.67
2022-11-04T06:20:20.866Z,15.50
2022-11-04T06:22:49.910Z,16.67
2022-11-04T06:25:18.655Z,19.47
2022-11-04T06:27:48.753Z,18.05
2022-11-04T06:30:17.614Z,22.90
2022-11-04T06:32:46.296Z,19.40
2022-11-04T06:35:15.102Z,14.75
2022-11-04T06:37:43.381Z,16.88
2022-11-04T06:40:12.713Z,18.65
2022-11-04T06:42:43.009Z,18.38
2022-11-04T06:45:13.158Z,12.13
2022-11-04T06:47:41.939Z,14.02
2022-11-04T06:50:11.065Z,18.05
2022-11-04T06:52:42.363Z,16.15
2022-11-04T06:55:11.936Z,17.42
2022-11-04T06:57:40.720Z,21.48
2022-11-04T07:00:10.543Z,19.23
2022-11-04T07:02:40.864Z,13.75
2022-11-04T07:07:38.394Z,13.82
2022-11-04T07:10:08.048Z,15.23
2022-11-04T07:12:36.728Z,21.43
2022-11-04T07:15:05.984Z,21.55
2022-11-04T07:17:34.840Z,16.95
2022-11-04T07:20:06.630Z,18.02
2022-11-04T07:22:34.934Z,17.10
2022-11-04T07:25:03.727Z,21.35
2022-11-04T07:27:32.425Z,16.77
2022-11-04T07:30:01.134Z,18.52
2022-11-04T07:32:30.211Z,15.57
2022-11-04T07:34:58.846Z,18.88
2022-11-04T07:37:28.585Z,17.48
2022-11-04T07:39:57.251Z,19.98
2022-11-04T07:42:25.855Z,16.30
2022-11-04T07:44:57.347Z,15.90
2022-11-04T07:47:25.929Z,13.65
2022-11-04T07:49:54.232Z,14.52
2022-11-04T07:52:23.025Z,20.40
2022-11-04T07:54:53.067Z,15.27
2022-11-04T07:57:22.517Z,19.52
2022-11-04T07:59:51.239Z,20.02
2022-11-04T08:02:25.799Z,32.25
2022-11-04T08:04:56.054Z,20.85
2022-11-04T08:07:24.717Z,10.80
2022-11-04T08:09:55.032Z,21.52
2022-11-04T08:12:24.537Z,12.98
2022-11-04T08:14:53.071Z,21.60
2022-11-04T08:17:21.732Z,18.45
2022-11-04T08:19:50.496Z,18.75
2022-11-04T08:22:19.378Z,18.38
2022-11-04T08:24:48.530Z,18.17
2022-11-04T08:27:18.652Z,18.08
2022-11-04T08:29:47.234Z,18.45
2022-11-04T08:32:16.022Z,18.38
2022-11-04T08:34:44.344Z,15.32
2022-11-04T08:37:15.347Z,21.52
2022-11-04T08:39:44.022Z,19.02
2022-11-04T08:42:12.667Z,18.63
2022-11-04T08:44:42.990Z,16.45
2022-11-04T08:47:11.610Z,15.05
2022-11-04T08:49:41.160Z,27.35
2022-11-04T08:52:10.228Z,16.38
2022-11-04T08:54:38.913Z,21.92
2022-11-04T08:57:08.255Z,23.95
2022-11-04T08:59:37.654Z,15.37
2022-11-04T09:02:08.215Z,17.10
2022-11-04T09:04:38.714Z,25.17
2022-11-04T09:09:37.219Z,23.00
2022-11-04T09:12:06.168Z,20.13
2022-11-04T09:14:34.887Z,24.10
2022-11-04T09:17:03.489Z,30.27
2022-11-04T09:19:33.197Z,22.23
2022-11-04T09:22:02.000Z,20.60
2022-11-04T09:24:32.020Z,19.73
2022-11-04T09:27:00.950Z,21.20
2022-11-04T09:29:33.665Z,15.73
2022-11-04T09:32:02.350Z,16.13
2022-11-04T09:34:32.391Z,16.40
2022-11-04T09:37:01.062Z,22.63
2022-11-04T09:39:29.699Z,19.08
2022-11-04T09:42:15.338Z,21.65
2022-11-04T09:45:19.625Z,19.80
2022-11-04T09:47:39.774Z,20.48
2022-11-04T09:50:12.448Z,15.83
2022-11-04T09:52:44.718Z,16.50
2022-11-04T09:55:18.111Z,18.00
2022-11-04T09:57:56.545Z,22.40
2022-11-04T10:00:26.031Z,14.52
2022-11-04T10:03:02.095Z,22.23
2022-11-04T10:05:41.735Z,23.02
2022-11-04T10:08:24.546Z,14.53
2022-11-04T10:10:57.695Z,19.58
2022-11-04T10:13:30.751Z,23.58
2022-11-04T10:16:12.860Z,20.13
2022-11-04T10:19:10.783Z,21.33
2022-11-04T10:21:47.607Z,18.58
2022-11-04T10:24:21.286Z,18.45
2022-11-04T10:27:00.405Z,14.70
2022-11-04T10:29:34.083Z,15.85
2022-11-04T10:32:06.995Z,14.20
2022-11-04T10:34:38.872Z,10.18
2022-11-04T10:37:13.185Z,17.23
2022-11-04T10:39:45.112Z,17.33
2022-11-04T10:42:16.143Z,13.35
2022-11-04T10:44:45.401Z,15.18
2022-11-04T10:47:22.191Z,17.40
2022-11-04T10:50:27.298Z,13.57
2022-11-04T10:52:47.802Z,17.75
2022-11-04T10:55:27.070Z,18.75
2022-11-04T10:57:56.956Z,14.70
2022-11-04T11:00:37.092Z,16.40
2022-11-04T11:03:24.626Z,14.07
2022-11-04T11:05:53.841Z,15.98
2022-11-04T11:08:31.949Z,25.88
2022-11-04T11:11:00.442Z,12.60
2022-11-04T11:13:35.749Z,14.57
2022-11-04T11:16:11.858Z,16.98
2022-11-04T11:18:42.122Z,21.48
2022-11-04T11:26:18.726Z,17.17
2022-11-04T11:28:55.795Z,14.98
2022-11-04T11:31:27.655Z,15.40
2022-11-04T11:33:58.069Z,15.88
2022-11-04T11:36:28.028Z,15.57
2022-11-04T11:39:05.832Z,14.48
2022-11-04T11:41:40.973Z,15.95
2022-11-04T11:44:20.946Z,13.57
2022-11-04T11:46:54.640Z,14.27
2022-11-04T11:49:28.499Z,16.95
2022-11-04T11:51:57.506Z,12.77
2022-11-04T11:54:33.954Z,14.52
2022-11-04T11:57:15.151Z,15.07
2022-11-04T12:02:49.118Z,12.95
2022-11-04T12:11:17.723Z,12.27
2022-11-04T12:13:50.605Z,13.38
2022-11-04T12:16:28.776Z,13.35
2022-11-04T12:19:31.284Z,12.10
2022-11-04T12:22:03.514Z,15.50
2022-11-04T12:24:39.526Z,12.50
2022-11-04T12:27:16.510Z,18.05
2022-11-04T12:30:00.439Z,12.63
2022-11-04T12:32:37.667Z,19.38
2022-11-04T12:35:18.606Z,15.02
2022-11-04T12:37:54.466Z,19.33
2022-11-04T12:40:26.705Z,14.20
2022-11-04T12:43:07.094Z,11.68
2022-11-04T12:45:44.799Z,16.23
2022-11-04T12:48:28.482Z,17.65
2022-11-04T12:51:03.079Z,14.35
2022-11-04T12:53:43.696Z,19.92
2022-11-04T12:56:13.484Z,13.50
2022-11-04T12:59:02.346Z,13.88
2022-11-04T13:01:34.803Z,14.00
2022-11-04T13:04:07.869Z,21.67
2022-11-04T13:06:41.259Z,14.57
2022-11-04T13:09:13.658Z,13.07
2022-11-04T13:11:46.864Z,12.65
2022-11-04T13:14:23.984Z,12.55
2022-11-04T13:16:53.066Z,18.67
2022-11-04T13:19:28.708Z,15.30
2022-11-04T13:21:58.570Z,18.35
2022-11-04T13:24:31.878Z,11.45
2022-11-04T13:27:04.648Z,14.98
2022-11-04T13:29:37.076Z,12.30
2022-11-04T13:32:12.297Z,14.70
2022-11-04T13:34:48.898Z,14.82
2022-11-04T13:37:22.572Z,21.25
2022-11-04T13:39:54.937Z,16.23
2022-11-04T13:42:44.204Z,11.38
2022-11-04T13:45:16.406Z,12.45
2022-11-04T13:47:48.866Z,18.73
2022-11-04T13:50:35.517Z,17.08
2022-11-04T13:53:04.925Z,14.90
2022-11-04T13:55:35.968Z,19.70
2022-11-04T13:58:06.676Z,17.60
2022-11-04T14:00:37.662Z,19.40
2022-11-04T14:03:40.322Z,16.75
2022-11-04T14:06:10.855Z,20.40
2022-11-04T14:09:14.373Z,16.30
2022-11-04T14:12:24.660Z,12.40
2022-11-04T14:14:56.060Z,20.52
2022-11-04T14:18:02.280Z,12.27
2022-11-04T14:20:33.446Z,14.48
2022-11-04T14:23:03.729Z,15.77
2022-11-04T14:25:38.005Z,17.15
2022-11-04T14:28:27.520Z,37.50
2022-11-04T14:30:58.944Z,18.90
2022-11-04T14:33:35.460Z,18.88
2022-11-04T14:36:26.848Z,22.83
2022-11-04T14:41:34.398Z,17.38
2022-11-04T14:44:04.511Z,16.73
2022-11-04T14:46:42.112Z,16.15
2022-11-04T14:49:32.949Z,13.60
2022-11-04T14:52:01.541Z,13.43
2022-11-04T14:54:32.723Z,13.98
2022-11-04T14:57:11.156Z,15.60
2022-11-04T14:59:39.851Z,17.42
2022-11-04T15:02:16.547Z,19.02
2022-11-04T15:04:58.120Z,17.88
2022-11-04T15:07:37.418Z,17.10
2022-11-04T15:10:21.089Z,14.38
2022-11-04T15:12:52.544Z,15.75
2022-11-04T15:15:32.881Z,14.95
2022-11-04T15:18:05.260Z,20.10
2022-11-04T15:20:46.639Z,19.17
2022-11-04T15:23:18.281Z,16.65
2022-11-04T15:25:48.647Z,15.50
2022-11-04T15:28:22.701Z,15.15
2022-11-04T15:31:06.112Z,22.40
2022-11-04T15:33:41.047Z,21.92
2022-11-04T15:36:12.027Z,21.75
2022-11-04T15:38:43.106Z,22.17
2022-11-04T15:41:33.159Z,17.13
2022-11-04T15:44:04.119Z,17.45
2022-11-04T15:46:32.885Z,19.45
2022-11-04T15:49:05.721Z,16.10
2022-11-04T15:51:39.333Z,18.13
2022-11-04T15:54:16.509Z,17.13
2022-11-04T15:56:50.132Z,19.75
2022-11-04T15:59:21.221Z,17.95
2022-11-04T16:01:50.954Z,16.27
2022-11-04T16:04:23.019Z,26.52
2022-11-04T16:07:06.590Z,17.48
2022-11-04T16:09:47.357Z,21.65
2022-11-04T16:12:18.552Z,18.30
2022-11-04T16:14:52.276Z,26.15
2022-11-04T16:17:21.325Z,21.58
2022-11-04T16:19:53.001Z,15.57
2022-11-04T16:22:26.794Z,22.85
2022-11-04T16:24:56.077Z,19.52
2022-11-04T16:27:24.968Z,20.83
2022-11-04T16:30:03.420Z,18.83
2022-11-04T16:32:40.576Z,24.08
2022-11-04T16:35:16.442Z,19.95
2022-11-04T16:37:44.707Z,25.77
2022-11-04T16:40:14.007Z,27.33
2022-11-04T16:42:42.796Z,20.60
2022-11-04T16:45:19.374Z,21.70
2022-11-04T16:47:48.038Z,22.17
2022-11-04T16:50:19.168Z,22.80
2022-11-04T16:52:47.754Z,23.50
2022-11-04T16:55:16.830Z,22.98
2022-11-04T16:57:46.190Z,29.58
2022-11-04T17:00:21.076Z,20.15
2022-11-04T17:02:50.386Z,19.40
2022-11-04T17:05:21.319Z,23.60
2022-11-04T17:07:58.853Z,21.98
2022-11-04T17:10:35.893Z,22.00
2022-11-04T17:13:04.691Z,19.27
2022-11-04T17:15:33.560Z,25.55
2022-11-04T17:18:02.253Z,22.50
2022-11-04T17:20:33.003Z,21.70
2022-11-04T17:23:02.335Z,23.08
2022-11-04T17:25:31.648Z,24.35
2022-11-04T17:28:00.320Z,23.77
2022-11-04T17:30:29.060Z,20.77
2022-11-04T17:32:58.246Z,21.10
2022-11-04T17:35:27.154Z,24.90
2022-11-04T17:37:56.963Z,21.55
2022-11-04T17:40:25.916Z,27.17
2022-11-04T17:43:23.478Z,19.60
2022-11-04T17:46:13.247Z,20.50
2022-11-04T17:48:41.999Z,25.13
2022-11-04T17:51:11.017Z,27.52
2022-11-04T17:53:41.205Z,26.92
2022-11-04T17:56:15.333Z,28.27
2022-11-04T17:58:43.776Z,27.95
2022-11-04T18:01:13.772Z,29.05
2022-11-04T18:03:43.214Z,27.63
2022-11-04T18:06:12.118Z,27.05
2022-11-04T18:08:42.280Z,23.67
2022-11-04T18:11:12.734Z,24.23
2022-11-04T18:13:40.075Z,24.58
2022-11-04T18:16:11.972Z,30.02
2022-11-04T18:18:40.820Z,20.60
2022-11-04T18:21:11.062Z,24.75
2022-11-04T18:23:41.175Z,24.77
2022-11-04T18:26:10.269Z,24.30
2022-11-04T18:28:38.900Z,31.00
2022-11-04T18:31:09.704Z,22.65
2022-11-04T18:33:42.633Z,26.80
2022-11-04T18:36:11.752Z,26.17
2022-11-04T18:38:41.806Z,31.25
2022-11-04T18:41:10.595Z,30.17
2022-11-04T18:43:38.927Z,25.58
2022-11-04T18:46:09.697Z,29.15
2022-11-04T18:48:38.703Z,28.35
2022-11-04T18:51:09.643Z,28.63
2022-11-04T18:53:38.710Z,27.10
2022-11-04T18:56:10.779Z,24.67
2022-11-04T18:58:40.345Z,30.70
2022-11-04T19:01:11.023Z,30.48
2022-11-04T19:03:40.187Z,26.88
2022-11-04T19:06:10.269Z,30.23
2022-11-04T19:08:45.304Z,32.67
2022-11-04T19:11:19.694Z,29.55
2022-11-04T19:13:51.687Z,31.17
2022-11-04T19:16:20.440Z,27.25
2022-11-04T19:18:49.607Z,30.73
2022-11-04T19:21:19.910Z,31.48
2022-11-04T19:23:48.629Z,28.95
2022-11-04T19:26:20.640Z,31.77
2022-11-04T19:28:50.081Z,29.60
2022-11-04T19:31:21.029Z,24.83
2022-11-04T19:33:50.113Z,23.90
2022-11-04T19:36:21.112Z,24.52
2022-11-04T19:38:52.634Z,28.92
2022-11-04T19:41:41.680Z,31.95
2022-11-04T19:44:12.261Z,27.95
2022-11-04T19:46:41.616Z,31.67
2022-11-04T19:49:12.522Z,25.90
2022-11-04T19:51:41.807Z,26.85
2022-11-04T19:54:11.259Z,23.35
2022-11-04T19:56:42.691Z,27.80
2022-11-04T19:59:12.489Z,23.65
2022-11-04T20:01:41.066Z,28.80
2022-11-04T20:04:10.713Z,27.70
2022-11-04T20:06:39.722Z,23.08
2022-11-04T20:09:11.081Z,25.85
2022-11-04T20:11:56.062Z,26.67
2022-11-04T20:14:24.784Z,27.35
2022-11-04T20:16:53.164Z,21.00
2022-11-04T20:19:23.094Z,26.10
2022-11-04T20:21:52.437Z,27.15
2022-11-04T20:24:21.106Z,27.08
2022-11-04T20:26:51.135Z,23.83
2022-11-04T20:29:19.990Z,26.83
2022-11-04T20:31:48.418Z,23.00
2022-11-04T20:34:17.062Z,25.35
2022-11-04T20:36:45.834Z,23.65
2022-11-04T20:39:16.797Z,24.08
2022-11-04T20:41:45.924Z,28.45
2022-11-04T20:44:16.668Z,21.13
2022-11-04T20:49:14.153Z,29.38
2022-11-04T20:51:54.512Z,27.20
2022-11-04T20:54:24.140Z,28.05
2022-11-04T20:56:52.733Z,23.20
2022-11-04T20:59:22.776Z,25.27
2022-11-04T21:01:51.220Z,32.35
2022-11-04T21:04:21.482Z,30.08
2022-11-04T21:06:51.468Z,23.42
2022-11-04T21:09:21.858Z,25.60
2022-11-04T21:11:51.411Z,22.35
2022-11-04T21:14:20.430Z,21.73
2022-11-04T21:16:50.146Z,18.83
2022-11-04T21:19:22.000Z,23.98
2022-11-04T21:21:51.442Z,24.58
2022-11-04T21:24:20.099Z,21.27
2022-11-04T21:26:49.094Z,21.15
2022-11-04T21:29:19.462Z,22.27
2022-11-04T21:31:49.848Z,23.23
2022-11-04T21:34:18.536Z,22.48
2022-11-04T21:36:47.215Z,24.50
2022-11-04T21:39:15.974Z,26.00
2022-11-04T21:41:44.756Z,20.02
2022-11-04T21:44:14.440Z,24.45
2022-11-04T21:46:43.405Z,18.63
2022-11-04T21:49:16.649Z,23.00
2022-11-04T21:51:45.226Z,22.48
2022-11-04T21:54:13.786Z,24.50
2022-11-04T21:56:42.582Z,29.70
2022-11-04T21:59:17.976Z,24.02
2022-11-04T22:01:46.874Z,29.95
2022-11-04T22:04:17.127Z,21.05
2022-11-04T22:06:47.179Z,25.70
2022-11-04T22:09:15.772Z,29.20
2022-11-04T22:11:44.543Z,27.73
2022-11-04T22:14:13.624Z,22.98
2022-11-04T22:16:41.967Z,22.13
2022-11-04T22:19:13.589Z,23.38
2022-11-04T22:21:45.473Z,24.67
2022-11-04T22:24:16.053Z,24.95
2022-11-04T22:26:44.720Z,25.25
2022-11-04T22:29:13.362Z,23.65
2022-11-04T22:31:43.114Z,23.92
2022-11-04T22:34:12.223Z,33.60
2022-11-04T22:36:41.132Z,21.77
2022-11-04T22:39:16.865Z,25.65
2022-11-04T22:41:47.196Z,27.45
2022-11-04T22:44:16.196Z,23.08
2022-11-04T22:46:44.780Z,23.17
2022-11-04T22:49:14.608Z,22.73
2022-11-04T22:51:43.373Z,27.65
2022-11-04T22:54:13.405Z,19.85
2022-11-04T22:56:42.162Z,30.00
2022-11-04T22:59:11.353Z,23.38
2022-11-04T23:01:39.707Z,28.08
2022-11-04T23:04:11.912Z,27.13
2022-11-04T23:06:40.973Z,31.73
2022-11-04T23:09:09.802Z,23.58
2022-11-04T23:11:57.356Z,30.20
2022-11-04T23:14:43.316Z,27.35
2022-11-04T23:17:34.431Z,26.98
2022-11-04T23:20:03.768Z,28.92
2022-11-04T23:22:49.573Z,29.80
2022-11-04T23:25:18.972Z,24.50
2022-11-04T23:28:07.712Z,27.20
2022-11-04T23:30:38.868Z,30.40
2022-11-04T23:33:09.058Z,30.08
2022-11-04T23:38:24.690Z,22.10
2022-11-04T23:41:21.314Z,28.90
2022-11-04T23:43:51.365Z,25.20
2022-11-04T23:46:42.638Z,25.08
2022-11-04T23:49:29.907Z,30.25
2022-11-04T23:52:15.950Z,22.13
2022-11-04T23:55:02.067Z,26.15
2022-11-04T23:57:48.337Z,25.25
